createdAt,value
2022-12-09T00:00:19.683Z,14.30
2022-12-09T00:01:19.913Z,13.90
2022-12-09T00:02:19.749Z,14.00
2022-12-09T00:03:23.645Z,13.90
2022-12-09T00:04:19.877Z,14.00
2022-12-09T00:05:19.712Z,14.00
2022-12-09T00:06:19.867Z,14.00
2022-12-09T00:07:19.603Z,14.00
2022-12-09T00:08:19.855Z,14.10
2022-12-09T00:09:19.851Z,14.00
2022-12-09T00:10:19.796Z,14.10
2022-12-09T00:11:19.737Z,14.10
2022-12-09T00:12:19.758Z,14.10
2022-12-09T00:13:19.821Z,14.10
2022-12-09T00:14:19.733Z,14.20
2022-12-09T00:15:19.712Z,14.10
2022-12-09T00:16:19.774Z,14.10
2022-12-09T00:17:19.725Z,14.00
2022-12-09T00:18:19.546Z,13.90
2022-12-09T00:19:19.666Z,14.00
2022-12-09T00:20:19.515Z,14.10
2022-12-09T00:21:19.449Z,14.10
2022-12-09T00:22:19.486Z,14.10
2022-12-09T00:23:19.426Z,14.10
2022-12-09T00:24:19.514Z,14.00
2022-12-09T00:25:19.437Z,14.00
2022-12-09T00:26:19.603Z,13.90
2022-12-09T00:27:19.503Z,14.00
2022-12-09T00:28:19.503Z,14.00
2022-12-09T00:29:19.406Z,13.90
2022-12-09T00:30:19.599Z,13.90
2022-12-09T00:31:19.421Z,13.90
2022-12-09T00:32:19.641Z,14.00
2022-12-09T00:33:19.537Z,13.90
2022-12-09T00:34:19.383Z,14.10
2022-12-09T00:35:19.315Z,13.90
2022-12-09T00:36:19.627Z,14.10
2022-12-09T00:37:19.307Z,14.00
2022-12-09T00:38:19.517Z,14.00
2022-12-09T00:39:19.353Z,14.00
2022-12-09T00:40:19.270Z,14.00
2022-12-09T00:41:19.323Z,14.10
2022-12-09T00:42:19.269Z,14.00
2022-12-09T00:43:19.217Z,13.90
2022-12-09T00:44:19.206Z,14.10
2022-12-09T00:45:19.252Z,14.10
2022-12-09T00:46:19.574Z,14.00
2022-12-09T00:47:19.323Z,14.10
2022-12-09T00:48:19.164Z,14.10
2022-12-09T00:49:19.154Z,14.10
2022-12-09T00:50:19.296Z,14.40
2022-12-09T00:51:19.186Z,14.10
2022-12-09T00:52:19.120Z,14.20
2022-12-09T00:53:19.110Z,14.10
2022-12-09T00:54:19.298Z,14.10
2022-12-09T00:55:19.490Z,14.00
2022-12-09T00:56:19.088Z,14.00
2022-12-09T00:57:19.223Z,14.20
2022-12-09T00:58:19.120Z,14.20
2022-12-09T00:59:19.049Z,14.10
2022-12-09T01:00:19.334Z,14.10
2022-12-09T01:01:19.073Z,14.20
2022-12-09T01:02:19.183Z,14.10
2022-12-09T01:03:19.498Z,14.00
2022-12-09T01:04:19.276Z,14.00
2022-12-09T01:05:19.335Z,14.00
2022-12-09T01:06:19.113Z,14.10
2022-12-09T01:07:18.962Z,14.20
2022-12-09T01:08:19.307Z,14.20
2022-12-09T01:09:19.160Z,14.40
2022-12-09T01:10:18.941Z,14.10
2022-12-09T01:11:18.918Z,14.20
2022-12-09T01:12:18.966Z,14.10
2022-12-09T01:13:18.897Z,14.00
2022-12-09T01:14:18.940Z,14.00
2022-12-09T01:15:18.910Z,14.10
2022-12-09T01:16:18.965Z,14.20
2022-12-09T01:17:18.949Z,14.20
2022-12-09T01:18:18.843Z,14.30
2022-12-09T01:19:18.880Z,14.30
2022-12-09T01:20:19.012Z,14.10
2022-12-09T01:21:18.812Z,14.10
2022-12-09T01:22:19.008Z,14.20
2022-12-09T01:23:19.035Z,14.00
2022-12-09T01:24:18.775Z,14.00
2022-12-09T01:25:18.926Z,14.20
2022-12-09T01:26:18.755Z,14.10
2022-12-09T01:27:19.083Z,14.20
2022-12-09T01:28:18.759Z,14.30
2022-12-09T01:29:18.957Z,14.10
2022-12-09T01:30:19.244Z,13.90
2022-12-09T01:31:18.862Z,13.90
2022-12-09T01:32:19.106Z,14.10
2022-12-09T01:33:18.691Z,14.10
2022-12-09T01:34:18.804Z,14.20
2022-12-09T01:35:18.862Z,14.20
2022-12-09T01:36:18.692Z,14.20
2022-12-09T01:37:18.888Z,14.30
2022-12-09T01:38:18.627Z,14.40
2022-12-09T01:39:18.623Z,14.40
2022-12-09T01:40:19.000Z,14.40
2022-12-09T01:41:18.723Z,14.30
2022-12-09T01:42:18.594Z,14.50
2022-12-09T01:43:18.633Z,14.40
2022-12-09T01:44:18.951Z,14.20
2022-12-09T01:45:18.567Z,14.40
2022-12-09T01:46:18.665Z,14.40
2022-12-09T01:47:18.579Z,14.60
2022-12-09T01:48:18.680Z,14.70
2022-12-09T01:49:18.518Z,14.70
2022-12-09T01:50:19.013Z,14.60
2022-12-09T01:51:18.498Z,14.70
2022-12-09T01:52:18.521Z,14.60
2022-12-09T01:53:18.467Z,14.30
2022-12-09T01:54:18.496Z,14.30
2022-12-09T01:55:18.595Z,14.30
2022-12-09T01:56:18.679Z,14.50
2022-12-09T01:57:18.586Z,14.60
2022-12-09T01:58:18.437Z,14.50
2022-12-09T01:59:18.659Z,14.70
2022-12-09T02:00:18.609Z,14.80
2022-12-09T02:01:18.464Z,14.40
2022-12-09T02:02:18.504Z,14.70
2022-12-09T02:03:18.851Z,14.70
2022-12-09T02:04:18.704Z,14.70
2022-12-09T02:05:18.889Z,14.60
2022-12-09T02:06:18.524Z,14.60
2022-12-09T02:07:18.655Z,14.70
2022-12-09T02:08:18.699Z,14.80
2022-12-09T02:09:18.710Z,14.80
2022-12-09T02:10:18.640Z,14.90
2022-12-09T02:11:18.408Z,14.70
2022-12-09T02:12:18.269Z,14.70
2022-12-09T02:13:18.272Z,14.70
2022-12-09T02:14:18.607Z,14.50
2022-12-09T02:15:18.602Z,14.60
2022-12-09T02:16:18.322Z,14.80
2022-12-09T02:17:18.284Z,14.80
2022-12-09T02:18:18.528Z,14.50
2022-12-09T02:19:18.306Z,14.50
2022-12-09T02:20:18.468Z,14.60
2022-12-09T02:21:18.219Z,14.60
2022-12-09T02:22:18.261Z,14.40
2022-12-09T02:23:18.169Z,14.60
2022-12-09T02:24:18.456Z,14.70
2022-12-09T02:25:18.382Z,14.70
2022-12-09T02:26:18.125Z,14.70
2022-12-09T02:27:18.421Z,14.80
2022-12-09T02:28:18.343Z,14.60
2022-12-09T02:29:18.426Z,14.70
2022-12-09T02:30:18.295Z,14.40
2022-12-09T02:31:18.384Z,14.50
2022-12-09T02:32:18.236Z,14.30
2022-12-09T02:33:18.260Z,14.20
2022-12-09T02:34:18.137Z,14.10
2022-12-09T02:35:18.070Z,14.20
2022-12-09T02:36:18.183Z,14.30
2022-12-09T02:37:18.308Z,14.50
2022-12-09T02:38:17.992Z,14.70
2022-12-09T02:39:18.118Z,14.40
2022-12-09T02:40:17.983Z,14.20
2022-12-09T02:41:20.247Z,14.10
2022-12-09T02:42:18.150Z,14.30
2022-12-09T02:43:17.945Z,14.30
2022-12-09T02:44:17.928Z,14.40
2022-12-09T02:45:18.115Z,14.20
2022-12-09T02:46:18.259Z,14.50
2022-12-09T02:47:18.150Z,14.50
2022-12-09T02:48:18.309Z,14.40
2022-12-09T02:49:18.201Z,14.40
2022-12-09T02:50:18.026Z,14.50
2022-12-09T02:51:18.153Z,14.80
2022-12-09T02:52:17.841Z,14.50
2022-12-09T02:53:17.878Z,14.70
2022-12-09T02:54:17.836Z,14.60
2022-12-09T02:55:17.827Z,14.70
2022-12-09T02:56:17.802Z,14.70
2022-12-09T02:57:17.903Z,14.90
2022-12-09T02:58:17.886Z,14.70
2022-12-09T02:59:18.059Z,14.60
2022-12-09T03:00:17.774Z,14.60
2022-12-09T03:01:17.854Z,14.40
2022-12-09T03:02:17.909Z,14.40
2022-12-09T03:03:18.033Z,14.40
2022-12-09T03:04:17.841Z,14.40
2022-12-09T03:05:17.819Z,14.30
2022-12-09T03:06:17.861Z,14.40
2022-12-09T03:07:17.686Z,14.40
2022-12-09T03:08:17.759Z,14.40
2022-12-09T03:09:17.890Z,14.60
2022-12-09T03:10:17.703Z,14.30
2022-12-09T03:11:17.642Z,14.30
2022-12-09T03:12:17.908Z,14.30
2022-12-09T03:13:17.646Z,14.10
2022-12-09T03:14:17.700Z,15.20
2022-12-09T03:15:17.635Z,14.60
2022-12-09T03:16:17.649Z,14.20
2022-12-09T03:17:17.905Z,14.30
2022-12-09T03:18:17.712Z,14.40
2022-12-09T03:19:17.594Z,14.80
2022-12-09T03:20:17.885Z,14.50
2022-12-09T03:21:17.689Z,14.30
2022-12-09T03:22:17.561Z,14.90
2022-12-09T03:23:17.517Z,14.30
2022-12-09T03:24:17.771Z,15.30
2022-12-09T03:25:17.769Z,16.00
2022-12-09T03:26:17.481Z,15.10
2022-12-09T03:27:17.605Z,14.60
2022-12-09T03:28:17.682Z,14.40
2022-12-09T03:29:17.700Z,14.50
2022-12-09T03:30:17.504Z,14.30
2022-12-09T03:31:17.791Z,14.20
2022-12-09T03:32:17.914Z,14.30
2022-12-09T03:33:17.510Z,14.20
2022-12-09T03:34:17.648Z,15.70
2022-12-09T03:35:17.559Z,16.00
2022-12-09T03:36:17.540Z,14.30
2022-12-09T03:37:17.359Z,15.20
2022-12-09T03:38:17.370Z,14.60
2022-12-09T03:39:17.382Z,14.40
2022-12-09T03:40:17.847Z,14.30
2022-12-09T03:41:17.323Z,14.00
2022-12-09T03:42:17.308Z,14.50
2022-12-09T03:43:17.487Z,14.40
2022-12-09T03:44:17.287Z,15.10
2022-12-09T03:45:17.438Z,14.20
2022-12-09T03:46:17.647Z,14.90
2022-12-09T03:47:17.481Z,15.50
2022-12-09T03:48:17.246Z,14.40
2022-12-09T03:49:17.289Z,14.30
2022-12-09T03:50:17.238Z,14.20
2022-12-09T03:51:17.254Z,14.20
2022-12-09T03:52:17.398Z,14.10
2022-12-09T03:53:17.354Z,14.00
2022-12-09T03:54:17.351Z,13.90
2022-12-09T03:55:17.184Z,14.90
2022-12-09T03:56:17.236Z,14.60
2022-12-09T03:57:19.271Z,14.40
2022-12-09T03:58:17.339Z,14.20
2022-12-09T03:59:17.413Z,15.20
2022-12-09T04:00:17.162Z,15.00
2022-12-09T04:01:17.195Z,14.10
2022-12-09T04:02:17.544Z,14.40
2022-12-09T04:03:17.311Z,14.00
2022-12-09T04:04:17.204Z,14.10
2022-12-09T04:05:17.251Z,16.20
2022-12-09T04:06:17.222Z,14.20
2022-12-09T04:07:17.038Z,14.80
2022-12-09T04:08:17.424Z,14.90
2022-12-09T04:09:17.180Z,14.20
2022-12-09T04:10:17.074Z,14.00
2022-12-09T04:11:17.168Z,14.00
2022-12-09T04:12:17.098Z,14.20
2022-12-09T04:13:17.019Z,14.40
2022-12-09T04:14:17.157Z,14.80
2022-12-09T04:15:17.012Z,14.90
2022-12-09T04:16:17.210Z,14.20
2022-12-09T04:17:17.260Z,14.40
2022-12-09T04:18:16.998Z,14.40
2022-12-09T04:19:17.241Z,14.40
2022-12-09T04:20:16.926Z,14.10
2022-12-09T04:21:17.142Z,14.20
2022-12-09T04:22:17.016Z,14.40
2022-12-09T04:23:17.004Z,14.70
2022-12-09T04:24:16.864Z,15.40
2022-12-09T04:25:16.985Z,15.00
2022-12-09T04:26:17.007Z,14.20
2022-12-09T04:27:17.018Z,14.30
2022-12-09T04:28:17.216Z,14.40
2022-12-09T04:29:17.168Z,14.10
2022-12-09T04:30:17.045Z,15.50
2022-12-09T04:31:17.267Z,14.80
2022-12-09T04:32:16.905Z,14.30
2022-12-09T04:33:17.049Z,14.00
2022-12-09T04:34:16.831Z,14.70
2022-12-09T04:35:17.042Z,16.00
2022-12-09T04:36:16.739Z,14.00
2022-12-09T04:37:16.762Z,14.20
2022-12-09T04:38:16.752Z,14.80
2022-12-09T04:39:17.026Z,15.00
2022-12-09T04:40:22.729Z,15.50
2022-12-09T04:41:17.677Z,14.60
2022-12-09T04:42:17.016Z,14.30
2022-12-09T04:43:17.032Z,15.00
2022-12-09T04:44:16.913Z,16.10
2022-12-09T04:45:16.758Z,15.10
2022-12-09T04:46:16.996Z,15.00
2022-12-09T04:47:16.997Z,15.50
2022-12-09T04:48:16.764Z,14.00
2022-12-09T04:49:16.820Z,14.60
2022-12-09T04:50:16.594Z,14.40
2022-12-09T04:51:16.583Z,14.10
2022-12-09T04:52:16.632Z,14.40
2022-12-09T04:53:16.899Z,15.40
2022-12-09T04:54:16.742Z,14.80
2022-12-09T04:55:16.851Z,14.30
2022-12-09T04:56:24.390Z,15.20
2022-12-09T04:57:16.542Z,14.50
2022-12-09T04:58:16.511Z,14.90
2022-12-09T04:59:16.821Z,14.10
2022-12-09T05:00:16.867Z,14.30
2022-12-09T05:01:18.308Z,14.90
2022-12-09T05:02:16.533Z,14.10
2022-12-09T05:03:16.540Z,14.10
2022-12-09T05:04:16.658Z,14.70
2022-12-09T05:05:16.746Z,15.20
2022-12-09T05:06:16.513Z,14.10
2022-12-09T05:07:16.551Z,15.00
2022-12-09T05:08:16.730Z,15.80
2022-12-09T05:09:16.906Z,14.20
2022-12-09T05:10:16.734Z,14.00
2022-12-09T05:11:16.559Z,15.30
2022-12-09T05:12:16.355Z,15.30
2022-12-09T05:13:16.663Z,14.80
2022-12-09T05:14:16.439Z,14.40
2022-12-09T05:15:16.418Z,15.00
2022-12-09T05:16:17.454Z,15.50
2022-12-09T05:17:16.658Z,14.70
2022-12-09T05:18:16.410Z,15.00
2022-12-09T05:19:16.652Z,14.50
2022-12-09T05:20:16.559Z,15.80
2022-12-09T05:21:16.648Z,15.00
2022-12-09T05:22:16.600Z,14.70
2022-12-09T05:23:16.507Z,14.20
2022-12-09T05:24:16.255Z,15.60
2022-12-09T05:25:16.378Z,14.30
2022-12-09T05:26:16.607Z,14.60
2022-12-09T05:27:16.260Z,15.30
2022-12-09T05:28:16.199Z,14.70
2022-12-09T05:29:22.330Z,14.90
2022-12-09T05:30:17.434Z,15.40
2022-12-09T05:31:16.345Z,14.60
2022-12-09T05:32:16.686Z,14.60
2022-12-09T05:33:16.584Z,16.10
2022-12-09T05:34:16.608Z,15.10
2022-12-09T05:35:16.479Z,14.40
2022-12-09T05:36:16.331Z,16.10
2022-12-09T05:37:16.184Z,17.00
2022-12-09T05:38:16.256Z,15.80
2022-12-09T05:39:16.412Z,14.60
2022-12-09T05:40:16.108Z,16.70
2022-12-09T05:41:16.034Z,15.20
2022-12-09T05:42:16.092Z,14.70
2022-12-09T05:43:16.125Z,15.10
2022-12-09T05:44:16.443Z,15.10
2022-12-09T05:45:16.180Z,15.20
2022-12-09T05:46:16.243Z,15.20
2022-12-09T05:47:16.320Z,15.90
2022-12-09T05:48:16.392Z,14.80
2022-12-09T05:49:16.204Z,14.90
2022-12-09T05:50:16.568Z,16.60
2022-12-09T05:51:16.058Z,15.50
2022-12-09T05:52:16.276Z,15.20
2022-12-09T05:53:16.181Z,15.30
2022-12-09T05:54:16.364Z,14.80
2022-12-09T05:55:16.056Z,15.40
2022-12-09T05:56:16.195Z,15.90
2022-12-09T05:57:15.927Z,15.10
2022-12-09T05:58:16.098Z,15.00
2022-12-09T05:59:15.880Z,16.10
2022-12-09T06:00:16.159Z,15.20
2022-12-09T06:01:16.178Z,15.50
2022-12-09T06:02:16.189Z,16.10
2022-12-09T06:03:16.229Z,16.40
2022-12-09T06:04:16.261Z,15.00
2022-12-09T06:05:16.329Z,15.30
2022-12-09T06:06:16.090Z,16.40
2022-12-09T06:07:16.083Z,15.10
2022-12-09T06:08:16.106Z,16.00
2022-12-09T06:09:16.133Z,15.20
2022-12-09T06:10:16.516Z,15.10
2022-12-09T06:11:15.942Z,15.90
2022-12-09T06:12:15.821Z,15.20
2022-12-09T06:13:15.886Z,15.00
2022-12-09T06:14:15.694Z,15.80
2022-12-09T06:15:21.231Z,15.30
2022-12-09T06:16:16.810Z,15.90
2022-12-09T06:17:15.761Z,15.00
2022-12-09T06:18:16.005Z,15.10
2022-12-09T06:19:16.054Z,16.10
2022-12-09T06:20:15.901Z,15.40
2022-12-09T06:21:15.776Z,15.00
2022-12-09T06:22:15.702Z,17.00
2022-12-09T06:23:15.998Z,15.10
2022-12-09T06:24:15.586Z,15.10
2022-12-09T06:25:15.967Z,15.40
2022-12-09T06:26:15.564Z,15.70
2022-12-09T06:27:15.684Z,15.00
2022-12-09T06:28:15.717Z,15.90
2022-12-09T06:29:15.838Z,15.60
2022-12-09T06:30:15.620Z,15.00
2022-12-09T06:31:15.691Z,15.40
2022-12-09T06:32:15.854Z,15.20
2022-12-09T06:33:45.155Z,15.00
2022-12-09T06:34:16.684Z,15.10
2022-12-09T06:35:16.042Z,16.10
2022-12-09T06:36:15.624Z,15.50
2022-12-09T06:37:15.487Z,15.10
2022-12-09T06:38:15.829Z,15.80
2022-12-09T06:39:15.435Z,15.00
2022-12-09T06:40:15.807Z,15.10
2022-12-09T06:41:15.628Z,16.10
2022-12-09T06:42:15.648Z,15.20
2022-12-09T06:43:15.644Z,15.30
2022-12-09T06:44:21.735Z,16.70
2022-12-09T06:45:16.479Z,15.60
2022-12-09T06:46:15.626Z,15.10
2022-12-09T06:47:15.551Z,15.20
2022-12-09T06:48:15.426Z,16.50
2022-12-09T06:49:15.748Z,15.30
2022-12-09T06:50:15.511Z,15.10
2022-12-09T06:51:15.661Z,15.40
2022-12-09T06:52:15.417Z,15.20
2022-12-09T06:53:15.437Z,15.20
2022-12-09T06:54:15.355Z,15.30
2022-12-09T06:55:15.650Z,15.60
2022-12-09T06:56:15.572Z,15.70
2022-12-09T06:57:15.536Z,15.30
2022-12-09T06:58:15.609Z,15.50
2022-12-09T06:59:15.558Z,15.60
2022-12-09T07:00:15.388Z,15.40
2022-12-09T07:01:15.704Z,16.30
2022-12-09T07:02:15.375Z,15.40
2022-12-09T07:03:15.479Z,15.70
2022-12-09T07:04:15.765Z,15.50
2022-12-09T07:05:16.049Z,15.40
2022-12-09T07:06:15.255Z,16.70
2022-12-09T07:07:15.325Z,15.30
2022-12-09T07:08:15.473Z,15.30
2022-12-09T07:09:15.679Z,16.60
2022-12-09T07:10:15.288Z,15.70
2022-12-09T07:11:15.462Z,15.00
2022-12-09T07:12:15.449Z,15.50
2022-12-09T07:13:15.097Z,15.50
2022-12-09T07:14:15.447Z,15.10
2022-12-09T07:15:15.298Z,16.50
2022-12-09T07:16:15.107Z,15.40
2022-12-09T07:17:15.173Z,15.60
2022-12-09T07:18:15.377Z,15.20
2022-12-09T07:19:15.493Z,15.40
2022-12-09T07:20:15.136Z,15.80
2022-12-09T07:21:15.122Z,15.30
2022-12-09T07:22:15.251Z,15.40
2022-12-09T07:23:15.038Z,16.10
2022-12-09T07:24:15.441Z,15.40
2022-12-09T07:25:15.347Z,15.40
2022-12-09T07:26:15.056Z,15.60
2022-12-09T07:27:19.405Z,15.90
2022-12-09T07:28:15.113Z,15.30
2022-12-09T07:29:15.314Z,15.50
2022-12-09T07:30:15.025Z,15.90
2022-12-09T07:31:15.054Z,15.60
2022-12-09T07:32:15.132Z,15.20
2022-12-09T07:33:15.374Z,15.60
2022-12-09T07:34:15.204Z,16.30
2022-12-09T07:35:15.643Z,15.60
2022-12-09T07:36:20.713Z,15.60
2022-12-09T07:37:15.806Z,15.30
2022-12-09T07:38:15.240Z,15.60
2022-12-09T07:39:14.870Z,16.00
2022-12-09T07:40:15.001Z,15.20
2022-12-09T07:41:14.838Z,15.70
2022-12-09T07:42:15.042Z,15.40
2022-12-09T07:43:15.034Z,15.30
2022-12-09T07:44:15.042Z,15.20
2022-12-09T07:45:15.323Z,15.10
2022-12-09T07:46:14.944Z,15.50
2022-12-09T07:47:14.826Z,15.90
2022-12-09T07:48:15.184Z,15.30
2022-12-09T07:49:15.154Z,15.30
2022-12-09T07:50:14.954Z,15.90
2022-12-09T07:51:14.698Z,15.60
2022-12-09T07:52:14.712Z,15.20
2022-12-09T07:53:14.896Z,15.20
2022-12-09T07:54:14.695Z,15.50
2022-12-09T07:55:15.060Z,15.40
2022-12-09T07:56:14.744Z,15.60
2022-12-09T07:57:14.895Z,14.80
2022-12-09T07:58:14.797Z,15.20
2022-12-09T07:59:14.712Z,14.70
2022-12-09T08:00:14.754Z,14.90
2022-12-09T08:01:14.779Z,15.50
2022-12-09T08:02:14.743Z,15.00
2022-12-09T08:03:14.738Z,15.40
2022-12-09T08:04:14.908Z,15.80
2022-12-09T08:05:15.164Z,15.00
2022-12-09T08:06:15.089Z,15.60
2022-12-09T08:07:14.775Z,14.90
2022-12-09T08:08:14.771Z,14.90
2022-12-09T08:09:14.949Z,15.30
2022-12-09T08:10:14.825Z,15.10
2022-12-09T08:11:14.665Z,15.00
2022-12-09T08:12:14.605Z,16.00
2022-12-09T08:13:14.750Z,16.60
2022-12-09T08:14:14.606Z,15.50
2022-12-09T08:15:14.845Z,15.20
2022-12-09T08:16:14.457Z,15.70
2022-12-09T08:17:14.839Z,16.80
2022-12-09T08:18:14.462Z,15.50
2022-12-09T08:19:14.810Z,16.00
2022-12-09T08:20:15.367Z,15.50
2022-12-09T08:21:14.763Z,15.20
2022-12-09T08:22:14.721Z,16.40
2022-12-09T08:23:14.442Z,15.50
2022-12-09T08:24:14.650Z,15.30
2022-12-09T08:25:15.260Z,15.50
2022-12-09T08:26:14.650Z,15.30
2022-12-09T08:27:14.734Z,15.40
2022-12-09T08:28:14.436Z,15.30
2022-12-09T08:29:14.650Z,15.40
2022-12-09T08:30:15.055Z,15.50
2022-12-09T08:31:14.553Z,15.30
2022-12-09T08:32:14.464Z,15.30
2022-12-09T08:33:14.343Z,15.70
2022-12-09T08:34:14.589Z,15.30
2022-12-09T08:35:14.414Z,15.60
2022-12-09T08:36:14.535Z,15.10
2022-12-09T08:37:14.608Z,15.60
2022-12-09T08:38:14.327Z,15.60
2022-12-09T08:39:14.341Z,15.30
2022-12-09T08:40:14.774Z,15.20
2022-12-09T08:41:14.336Z,16.30
2022-12-09T08:42:14.211Z,15.40
2022-12-09T08:43:14.123Z,15.40
2022-12-09T08:44:14.472Z,15.30
2022-12-09T08:45:14.509Z,15.50
2022-12-09T08:46:14.553Z,15.60
2022-12-09T08:47:14.157Z,15.40
2022-12-09T08:48:14.343Z,15.30
2022-12-09T08:49:14.405Z,15.40
2022-12-09T08:50:14.636Z,15.60
2022-12-09T08:51:14.027Z,15.50
2022-12-09T08:52:14.269Z,15.40
2022-12-09T08:53:13.993Z,15.30
2022-12-09T08:54:14.051Z,16.00
2022-12-09T08:55:14.071Z,15.90
2022-12-09T08:56:14.267Z,15.60
2022-12-09T08:57:14.177Z,15.50
2022-12-09T08:58:14.213Z,15.70
2022-12-09T08:59:13.927Z,16.70
2022-12-09T09:00:14.991Z,15.50
2022-12-09T09:01:13.994Z,15.40
2022-12-09T09:02:14.435Z,16.10
2022-12-09T09:03:14.132Z,15.80
2022-12-09T09:04:14.434Z,15.20
2022-12-09T09:05:14.434Z,15.20
2022-12-09T09:06:14.304Z,15.50
2022-12-09T09:07:14.055Z,15.30
2022-12-09T09:08:14.320Z,15.40
2022-12-09T09:09:14.310Z,15.40
2022-12-09T09:10:14.507Z,15.30
2022-12-09T09:11:14.436Z,15.40
2022-12-09T09:12:14.107Z,15.20
2022-12-09T09:13:14.239Z,15.50
2022-12-09T09:14:14.202Z,15.10
2022-12-09T09:15:14.484Z,15.30
2022-12-09T09:16:14.060Z,15.30
2022-12-09T09:17:13.907Z,15.40
2022-12-09T09:18:14.266Z,15.30
2022-12-09T09:19:14.184Z,15.00
2022-12-09T09:20:14.312Z,15.30
2022-12-09T09:21:13.972Z,15.20
2022-12-09T09:22:13.799Z,15.60
2022-12-09T09:23:13.830Z,15.20
2022-12-09T09:24:13.658Z,15.30
2022-12-09T09:25:14.697Z,15.20
2022-12-09T09:26:13.777Z,15.30
2022-12-09T09:27:14.079Z,15.40
2022-12-09T09:28:13.718Z,15.50
2022-12-09T09:29:13.719Z,15.70
2022-12-09T09:30:14.442Z,15.20
2022-12-09T09:31:13.723Z,14.90
2022-12-09T09:32:14.153Z,15.60
2022-12-09T09:33:13.878Z,15.30
2022-12-09T09:34:14.099Z,15.80
2022-12-09T09:35:13.835Z,15.80
2022-12-09T09:36:13.590Z,15.60
2022-12-09T09:37:13.562Z,15.50
2022-12-09T09:38:13.935Z,15.60
2022-12-09T09:39:13.883Z,15.50
2022-12-09T09:40:14.403Z,16.20
2022-12-09T09:41:13.936Z,16.00
2022-12-09T09:42:13.534Z,15.70
2022-12-09T09:43:13.645Z,15.50
2022-12-09T09:44:13.458Z,16.00
2022-12-09T09:45:13.879Z,15.80
2022-12-09T09:46:13.879Z,15.60
2022-12-09T09:47:13.993Z,15.40
2022-12-09T09:48:13.534Z,15.90
2022-12-09T09:49:13.846Z,15.70
2022-12-09T09:50:13.713Z,15.60
2022-12-09T09:51:13.820Z,15.80
2022-12-09T09:52:13.410Z,15.30
2022-12-09T09:53:13.428Z,15.30
2022-12-09T09:54:13.471Z,16.30
2022-12-09T09:55:13.328Z,15.50
2022-12-09T09:56:13.734Z,15.10
2022-12-09T09:57:13.426Z,16.00
2022-12-09T09:58:13.673Z,15.20
2022-12-09T09:59:13.471Z,15.20
2022-12-09T10:00:14.441Z,15.20
2022-12-09T10:01:13.543Z,15.30
2022-12-09T10:02:13.851Z,15.10
2022-12-09T10:03:13.283Z,15.30
2022-12-09T10:04:13.567Z,15.30
2022-12-09T10:05:13.486Z,15.50
2022-12-09T10:06:13.843Z,14.80
2022-12-09T10:07:13.469Z,15.40
2022-12-09T10:08:13.553Z,15.90
2022-12-09T10:09:13.414Z,15.00
2022-12-09T10:10:13.549Z,15.60
2022-12-09T10:11:13.906Z,15.20
2022-12-09T10:12:13.454Z,15.10
2022-12-09T10:13:18.351Z,15.20
2022-12-09T10:14:14.430Z,15.60
2022-12-09T10:15:13.420Z,15.60
2022-12-09T10:16:13.330Z,15.30
2022-12-09T10:17:13.750Z,15.50
2022-12-09T10:18:13.672Z,15.20
2022-12-09T10:19:13.323Z,15.40
2022-12-09T10:20:13.788Z,15.30
2022-12-09T10:21:13.151Z,15.80
2022-12-09T10:22:13.656Z,15.90
2022-12-09T10:23:13.126Z,15.10
2022-12-09T10:24:13.282Z,15.20
2022-12-09T10:25:13.471Z,15.80
2022-12-09T10:26:13.286Z,15.90
2022-12-09T10:27:13.363Z,16.10
2022-12-09T10:28:13.043Z,15.30
2022-12-09T10:29:13.065Z,15.20
2022-12-09T10:30:13.273Z,16.30
2022-12-09T10:31:13.484Z,15.00
2022-12-09T10:32:13.052Z,15.20
2022-12-09T10:33:13.536Z,16.20
2022-12-09T10:34:13.435Z,15.00
2022-12-09T10:35:13.272Z,15.60
2022-12-09T10:36:13.015Z,15.00
2022-12-09T10:37:12.886Z,14.90
2022-12-09T10:38:13.326Z,15.50
2022-12-09T10:39:12.864Z,15.80
2022-12-09T10:40:13.308Z,15.20
2022-12-09T10:41:13.224Z,15.40
2022-12-09T10:42:12.929Z,15.70
2022-12-09T10:43:13.114Z,16.30
2022-12-09T10:44:12.915Z,15.50
2022-12-09T10:45:12.889Z,14.90
2022-12-09T10:46:18.270Z,15.50
2022-12-09T10:47:14.053Z,15.60
2022-12-09T10:48:13.271Z,15.20
2022-12-09T10:49:12.959Z,15.40
2022-12-09T10:50:13.528Z,15.30
2022-12-09T10:51:13.190Z,15.30
2022-12-09T10:52:12.720Z,15.60
2022-12-09T10:53:12.910Z,15.20
2022-12-09T10:54:16.580Z,15.60
2022-12-09T10:55:13.965Z,15.50
2022-12-09T10:56:20.161Z,15.20
2022-12-09T10:57:12.936Z,15.10
2022-12-09T10:58:13.106Z,15.20
2022-12-09T10:59:12.888Z,15.20
2022-12-09T11:00:13.280Z,14.90
2022-12-09T11:01:12.811Z,15.40
2022-12-09T11:02:12.855Z,15.50
2022-12-09T11:03:12.945Z,15.20
2022-12-09T11:04:13.187Z,15.30
2022-12-09T11:05:13.115Z,15.30
2022-12-09T11:06:13.278Z,14.90
2022-12-09T11:07:13.145Z,15.70
2022-12-09T11:08:12.705Z,15.30
2022-12-09T11:09:12.973Z,15.10
2022-12-09T11:10:13.126Z,15.30
2022-12-09T11:11:12.839Z,16.00
2022-12-09T11:12:12.660Z,14.80
2022-12-09T11:13:12.556Z,15.50
2022-12-09T11:14:12.606Z,14.90
2022-12-09T11:15:12.644Z,14.80
2022-12-09T11:16:12.578Z,15.00
2022-12-09T11:17:12.945Z,15.70
2022-12-09T11:18:12.808Z,15.50
2022-12-09T11:19:12.855Z,14.60
2022-12-09T11:20:13.218Z,14.80
2022-12-09T11:21:12.921Z,14.80
2022-12-09T11:22:12.893Z,15.00
2022-12-09T11:23:12.593Z,15.10
2022-12-09T11:24:12.630Z,15.00
2022-12-09T11:25:12.910Z,15.10
2022-12-09T11:26:12.420Z,15.20
2022-12-09T11:27:12.889Z,15.20
2022-12-09T11:28:12.523Z,15.00
2022-12-09T11:29:12.603Z,15.40
2022-12-09T11:30:13.959Z,15.40
2022-12-09T11:31:28.902Z,14.90
2022-12-09T11:32:13.545Z,15.10
2022-12-09T11:33:12.416Z,15.10
2022-12-09T11:34:12.446Z,15.00
2022-12-09T11:35:13.041Z,15.70
2022-12-09T11:36:12.267Z,14.60
2022-12-09T11:37:12.250Z,14.90
2022-12-09T11:38:12.253Z,15.20
2022-12-09T11:39:12.217Z,14.80
2022-12-09T11:40:12.208Z,15.00
2022-12-09T11:41:12.208Z,15.00
2022-12-09T11:42:16.438Z,15.90
2022-12-09T11:43:12.174Z,14.70
2022-12-09T11:44:12.165Z,15.10
2022-12-09T11:45:12.170Z,15.90
2022-12-09T11:46:12.186Z,15.10
2022-12-09T11:47:12.177Z,15.20
2022-12-09T11:48:27.955Z,15.20
2022-12-09T11:49:13.112Z,14.80
2022-12-09T11:50:12.203Z,15.10
2022-12-09T11:51:12.100Z,15.50
2022-12-09T11:52:12.081Z,14.70
2022-12-09T11:53:12.211Z,15.10
2022-12-09T11:54:12.094Z,15.50
2022-12-09T11:55:12.045Z,14.90
2022-12-09T11:56:12.072Z,14.70
2022-12-09T11:57:12.026Z,15.00
2022-12-09T11:58:12.015Z,15.00
2022-12-09T11:59:12.005Z,14.90
2022-12-09T12:00:11.996Z,14.40
2022-12-09T12:01:11.994Z,15.50
2022-12-09T12:02:12.015Z,15.30
2022-12-09T12:03:12.035Z,14.50
2022-12-09T12:04:11.954Z,14.50
2022-12-09T12:05:14.637Z,14.90
2022-12-09T12:06:12.941Z,14.60
2022-12-09T12:07:11.916Z,14.70
2022-12-09T12:08:12.009Z,14.60
2022-12-09T12:09:11.951Z,14.90
2022-12-09T12:10:11.903Z,14.60
2022-12-09T12:11:15.347Z,14.80
2022-12-09T12:12:11.869Z,15.20
2022-12-09T12:13:11.857Z,15.20
2022-12-09T12:14:11.857Z,16.10
2022-12-09T12:15:11.832Z,15.30
2022-12-09T12:16:11.837Z,15.10
2022-12-09T12:17:11.913Z,15.10
2022-12-09T12:18:11.801Z,14.80
2022-12-09T12:19:11.802Z,14.20
2022-12-09T12:20:11.831Z,14.90
2022-12-09T12:21:11.793Z,15.20
2022-12-09T12:22:11.772Z,15.50
2022-12-09T12:23:11.783Z,15.60
2022-12-09T12:24:11.740Z,15.20
2022-12-09T12:25:17.386Z,15.50
2022-12-09T12:26:12.755Z,15.10
2022-12-09T12:27:11.707Z,16.10
2022-12-09T12:28:11.698Z,14.90
2022-12-09T12:29:11.686Z,14.70
2022-12-09T12:30:11.685Z,15.30
2022-12-09T12:31:11.675Z,15.00
2022-12-09T12:32:11.654Z,15.30
2022-12-09T12:33:59.796Z,14.80
2022-12-09T12:34:28.007Z,14.90
2022-12-09T12:35:12.620Z,14.80
2022-12-09T12:36:11.624Z,14.50
2022-12-09T12:37:11.616Z,14.80
2022-12-09T12:38:11.593Z,14.90
2022-12-09T12:39:11.577Z,14.90
2022-12-09T12:40:11.646Z,14.20
2022-12-09T12:41:11.568Z,14.90
2022-12-09T12:42:11.585Z,14.60
2022-12-09T12:43:11.538Z,14.70
2022-12-09T12:44:11.526Z,15.30
2022-12-09T12:45:11.514Z,15.10
2022-12-09T12:46:11.580Z,14.90
2022-12-09T12:47:11.494Z,15.00
2022-12-09T12:48:11.582Z,14.90
2022-12-09T12:49:11.472Z,15.20
2022-12-09T12:50:11.511Z,15.10
2022-12-09T12:51:11.462Z,15.20
2022-12-09T12:52:26.365Z,15.10